Huntsville, Illinois
Current Conditions -  °F | °C
As of 10:54 AM on Friday 31 Oct 2014 (Local Time) from KUIN Reporting Station
Few Clouds Few Clouds  
Wind Chill: 27°   Ceiling: Unl
Heat Index: 38°   Visibility: 10mi
Dew Point: 22°   Wind: 23mph
Humidity: 53%   Direction: 340°NNW
Pressure: 30.36"   Gusts: 30mph
Location:  40.19°N, 90.86°W
Report Text: KUIN 311554Z AUTO 34020G26KT 10SM FEW035 03/M06 A3036 RMK AO2 PK WND 34026/1554 SLP283 T00331056
Loading
Personal Weather Stations






























Interactive Weather Map
Tropical Storm Tracking
New forecast layout! Learn more

10-Day Weather Forecast

Advertisements
Track Severe Weather on mobile